sensor_id;sensor_type;location;lat;lon;timestamp;P1;durP1;ratioP1;P2;durP2;ratioP2
71303;SDS011;59091;47.446;19.148;2023-04-03T00:00:31;7.18;;;4.20;;
71303;SDS011;59091;47.446;19.148;2023-04-03T00:02:57;5.55;;;4.25;;
71303;SDS011;59091;47.446;19.148;2023-04-03T00:05:22;6.68;;;3.95;;
71303;SDS011;59091;47.446;19.148;2023-04-03T00:07:48;5.25;;;4.28;;
71303;SDS011;59091;47.446;19.148;2023-04-03T00:10:15;8.00;;;4.30;;
71303;SDS011;59091;47.446;19.148;2023-04-03T00:12:40;4.93;;;4.28;;
71303;SDS011;59091;47.446;19.148;2023-04-03T00:15:06;7.30;;;4.30;;
71303;SDS011;59091;47.446;19.148;2023-04-03T00:17:32;6.20;;;4.40;;
71303;SDS011;59091;47.446;19.148;2023-04-03T00:19:58;6.10;;;4.60;;
71303;SDS011;59091;47.446;19.148;2023-04-03T00:22:23;5.53;;;4.28;;
71303;SDS011;59091;47.446;19.148;2023-04-03T00:24:48;6.22;;;4.68;;
71303;SDS011;59091;47.446;19.148;2023-04-03T00:27:14;7.95;;;4.88;;
71303;SDS011;59091;47.446;19.148;2023-04-03T00:29:40;6.63;;;4.50;;
71303;SDS011;59091;47.446;19.148;2023-04-03T00:32:06;6.18;;;4.78;;
71303;SDS011;59091;47.446;19.148;2023-04-03T00:34:31;6.18;;;4.30;;
71303;SDS011;59091;47.446;19.148;2023-04-03T00:36:57;5.38;;;4.20;;
71303;SDS011;59091;47.446;19.148;2023-04-03T00:39:22;5.40;;;4.78;;
71303;SDS011;59091;47.446;19.148;2023-04-03T00:41:48;6.10;;;4.70;;
71303;SDS011;59091;47.446;19.148;2023-04-03T00:47:11;6.30;;;4.47;;
71303;SDS011;59091;47.446;19.148;2023-04-03T00:49:39;6.65;;;4.25;;
71303;SDS011;59091;47.446;19.148;2023-04-03T00:52:06;6.15;;;4.43;;
71303;SDS011;59091;47.446;19.148;2023-04-03T00:54:37;6.10;;;4.82;;
71303;SDS011;59091;47.446;19.148;2023-04-03T00:57:05;7.22;;;4.78;;
71303;SDS011;59091;47.446;19.148;2023-04-03T00:59:32;6.07;;;4.30;;
71303;SDS011;59091;47.446;19.148;2023-04-03T01:02:01;7.28;;;4.63;;
71303;SDS011;59091;47.446;19.148;2023-04-03T01:04:27;7.82;;;4.63;;
71303;SDS011;59091;47.446;19.148;2023-04-03T01:06:58;7.45;;;4.80;;
71303;SDS011;59091;47.446;19.148;2023-04-03T01:09:26;6.97;;;4.53;;
71303;SDS011;59091;47.446;19.148;2023-04-03T01:11:53;5.43;;;4.45;;
71303;SDS011;59091;47.446;19.148;2023-04-03T01:14:19;7.10;;;4.72;;
71303;SDS011;59091;47.446;19.148;2023-04-03T01:16:52;7.45;;;4.72;;
71303;SDS011;59091;47.446;19.148;2023-04-03T01:19:18;6.40;;;4.47;;
71303;SDS011;59091;47.446;19.148;2023-04-03T01:26:58;5.32;;;4.38;;
71303;SDS011;59091;47.446;19.148;2023-04-03T01:29:26;6.05;;;4.68;;
71303;SDS011;59091;47.446;19.148;2023-04-03T01:34:18;6.88;;;4.65;;
71303;SDS011;59091;47.446;19.148;2023-04-03T01:36:44;5.15;;;3.97;;
71303;SDS011;59091;47.446;19.148;2023-04-03T01:39:10;6.53;;;3.88;;
71303;SDS011;59091;47.446;19.148;2023-04-03T01:41:36;5.70;;;4.38;;
71303;SDS011;59091;47.446;19.148;2023-04-03T01:44:01;7.70;;;4.22;;
71303;SDS011;59091;47.446;19.148;2023-04-03T01:46:27;6.13;;;3.80;;
71303;SDS011;59091;47.446;19.148;2023-04-03T01:48:52;8.02;;;4.28;;
71303;SDS011;59091;47.446;19.148;2023-04-03T01:51:18;6.70;;;4.20;;
71303;SDS011;59091;47.446;19.148;2023-04-03T01:53:43;5.50;;;4.05;;
71303;SDS011;59091;47.446;19.148;2023-04-03T01:56:08;7.70;;;4.57;;
71303;SDS011;59091;47.446;19.148;2023-04-03T01:58:34;5.18;;;4.13;;
71303;SDS011;59091;47.446;19.148;2023-04-03T02:01:00;6.18;;;4.10;;
71303;SDS011;59091;47.446;19.148;2023-04-03T02:03:26;6.90;;;4.20;;
71303;SDS011;59091;47.446;19.148;2023-04-03T02:05:52;5.78;;;4.13;;
71303;SDS011;59091;47.446;19.148;2023-04-03T02:08:17;4.53;;;3.60;;
71303;SDS011;59091;47.446;19.148;2023-04-03T02:10:43;5.35;;;3.90;;
71303;SDS011;59091;47.446;19.148;2023-04-03T02:13:12;6.38;;;4.15;;
71303;SDS011;59091;47.446;19.148;2023-04-03T02:15:38;6.50;;;4.03;;
71303;SDS011;59091;47.446;19.148;2023-04-03T02:18:04;4.03;;;3.58;;
71303;SDS011;59091;47.446;19.148;2023-04-03T02:20:30;4.78;;;4.00;;
71303;SDS011;59091;47.446;19.148;2023-04-03T02:22:55;4.55;;;3.50;;
71303;SDS011;59091;47.446;19.148;2023-04-03T02:25:21;5.07;;;3.75;;
71303;SDS011;59091;47.446;19.148;2023-04-03T02:27:46;4.75;;;3.60;;
71303;SDS011;59091;47.446;19.148;2023-04-03T02:30:12;4.68;;;3.60;;
71303;SDS011;59091;47.446;19.148;2023-04-03T02:32:39;5.65;;;3.83;;
71303;SDS011;59091;47.446;19.148;2023-04-03T02:35:05;5.90;;;3.90;;
71303;SDS011;59091;47.446;19.148;2023-04-03T02:37:32;4.22;;;3.67;;
71303;SDS011;59091;47.446;19.148;2023-04-03T02:39:57;4.78;;;3.78;;
71303;SDS011;59091;47.446;19.148;2023-04-03T02:42:23;4.72;;;3.42;;
71303;SDS011;59091;47.446;19.148;2023-04-03T02:44:49;7.22;;;3.92;;
71303;SDS011;59091;47.446;19.148;2023-04-03T02:47:14;4.70;;;3.60;;
71303;SDS011;59091;47.446;19.148;2023-04-03T02:49:40;4.20;;;3.13;;
71303;SDS011;59091;47.446;19.148;2023-04-03T02:52:08;3.75;;;3.08;;
71303;SDS011;59091;47.446;19.148;2023-04-03T02:54:34;4.22;;;3.53;;
71303;SDS011;59091;47.446;19.148;2023-04-03T02:57:00;5.18;;;3.20;;
71303;SDS011;59091;47.446;19.148;2023-04-03T02:59:25;4.05;;;3.28;;
71303;SDS011;59091;47.446;19.148;2023-04-03T03:01:51;4.25;;;3.40;;
71303;SDS011;59091;47.446;19.148;2023-04-03T03:04:16;6.25;;;3.60;;
71303;SDS011;59091;47.446;19.148;2023-04-03T03:06:42;4.22;;;3.28;;
71303;SDS011;59091;47.446;19.148;2023-04-03T03:09:07;4.97;;;3.80;;
71303;SDS011;59091;47.446;19.148;2023-04-03T03:11:33;4.65;;;3.22;;
71303;SDS011;59091;47.446;19.148;2023-04-03T03:13:58;4.15;;;3.22;;
71303;SDS011;59091;47.446;19.148;2023-04-03T03:16:24;4.50;;;3.42;;
71303;SDS011;59091;47.446;19.148;2023-04-03T03:18:49;4.18;;;3.20;;
71303;SDS011;59091;47.446;19.148;2023-04-03T03:21:14;4.15;;;3.38;;
71303;SDS011;59091;47.446;19.148;2023-04-03T03:23:40;5.30;;;3.63;;
71303;SDS011;59091;47.446;19.148;2023-04-03T03:26:07;3.80;;;3.13;;
71303;SDS011;59091;47.446;19.148;2023-04-03T03:28:34;5.13;;;3.28;;
71303;SDS011;59091;47.446;19.148;2023-04-03T03:31:01;5.18;;;3.40;;
71303;SDS011;59091;47.446;19.148;2023-04-03T03:33:27;4.88;;;3.42;;
71303;SDS011;59091;47.446;19.148;2023-04-03T03:35:53;7.07;;;3.80;;
71303;SDS011;59091;47.446;19.148;2023-04-03T03:38:19;4.32;;;3.22;;
71303;SDS011;59091;47.446;19.148;2023-04-03T03:40:46;4.22;;;3.22;;
71303;SDS011;59091;47.446;19.148;2023-04-03T03:43:13;6.00;;;3.70;;
71303;SDS011;59091;47.446;19.148;2023-04-03T03:45:39;3.65;;;3.22;;
71303;SDS011;59091;47.446;19.148;2023-04-03T03:48:04;4.00;;;3.20;;
71303;SDS011;59091;47.446;19.148;2023-04-03T03:50:30;4.38;;;3.30;;
71303;SDS011;59091;47.446;19.148;2023-04-03T03:52:56;3.80;;;3.38;;
71303;SDS011;59091;47.446;19.148;2023-04-03T03:55:21;3.85;;;3.00;;
71303;SDS011;59091;47.446;19.148;2023-04-03T03:57:46;4.97;;;3.65;;
71303;SDS011;59091;47.446;19.148;2023-04-03T04:00:12;3.20;;;2.90;;
71303;SDS011;59091;47.446;19.148;2023-04-03T04:02:38;6.70;;;3.78;;
71303;SDS011;59091;47.446;19.148;2023-04-03T04:05:04;5.03;;;3.78;;
71303;SDS011;59091;47.446;19.148;2023-04-03T04:07:29;4.32;;;3.35;;
71303;SDS011;59091;47.446;19.148;2023-04-03T04:09:55;4.40;;;3.67;;
71303;SDS011;59091;47.446;19.148;2023-04-03T04:12:21;5.93;;;3.45;;
71303;SDS011;59091;47.446;19.148;2023-04-03T04:14:46;4.88;;;3.30;;
71303;SDS011;59091;47.446;19.148;2023-04-03T04:17:12;4.75;;;3.78;;
71303;SDS011;59091;47.446;19.148;2023-04-03T04:19:38;5.00;;;3.58;;
71303;SDS011;59091;47.446;19.148;2023-04-03T04:22:04;5.80;;;3.50;;
71303;SDS011;59091;47.446;19.148;2023-04-03T04:24:29;5.90;;;3.70;;
71303;SDS011;59091;47.446;19.148;2023-04-03T04:26:55;4.72;;;3.67;;
71303;SDS011;59091;47.446;19.148;2023-04-03T04:29:20;4.30;;;3.58;;
71303;SDS011;59091;47.446;19.148;2023-04-03T04:31:46;5.05;;;3.38;;
71303;SDS011;59091;47.446;19.148;2023-04-03T04:34:11;4.35;;;3.55;;
71303;SDS011;59091;47.446;19.148;2023-04-03T04:36:38;4.43;;;3.67;;
71303;SDS011;59091;47.446;19.148;2023-04-03T04:39:03;6.15;;;4.15;;
71303;SDS011;59091;47.446;19.148;2023-04-03T04:41:30;4.35;;;3.75;;
71303;SDS011;59091;47.446;19.148;2023-04-03T04:43:55;5.93;;;3.70;;
71303;SDS011;59091;47.446;19.148;2023-04-03T04:46:21;6.20;;;3.63;;
71303;SDS011;59091;47.446;19.148;2023-04-03T04:48:46;6.03;;;4.20;;
71303;SDS011;59091;47.446;19.148;2023-04-03T04:51:13;7.28;;;4.25;;
71303;SDS011;59091;47.446;19.148;2023-04-03T04:53:39;13.27;;;4.15;;
71303;SDS011;59091;47.446;19.148;2023-04-03T04:56:04;6.00;;;3.90;;
71303;SDS011;59091;47.446;19.148;2023-04-03T04:58:30;7.30;;;4.00;;
71303;SDS011;59091;47.446;19.148;2023-04-03T05:00:59;7.25;;;3.90;;
71303;SDS011;59091;47.446;19.148;2023-04-03T05:03:26;5.28;;;3.88;;
71303;SDS011;59091;47.446;19.148;2023-04-03T05:05:51;4.72;;;3.67;;
71303;SDS011;59091;47.446;19.148;2023-04-03T05:08:17;6.13;;;4.20;;
71303;SDS011;59091;47.446;19.148;2023-04-03T05:10:42;4.57;;;3.65;;
71303;SDS011;59091;47.446;19.148;2023-04-03T05:13:10;4.00;;;3.38;;
71303;SDS011;59091;47.446;19.148;2023-04-03T05:15:35;6.05;;;3.85;;
71303;SDS011;59091;47.446;19.148;2023-04-03T05:18:00;6.10;;;4.20;;
71303;SDS011;59091;47.446;19.148;2023-04-03T05:20:26;5.32;;;3.72;;
71303;SDS011;59091;47.446;19.148;2023-04-03T05:22:51;4.65;;;3.67;;
71303;SDS011;59091;47.446;19.148;2023-04-03T05:25:17;5.47;;;3.88;;
71303;SDS011;59091;47.446;19.148;2023-04-03T05:27:42;5.32;;;4.00;;
71303;SDS011;59091;47.446;19.148;2023-04-03T05:30:09;4.80;;;3.85;;
71303;SDS011;59091;47.446;19.148;2023-04-03T05:32:35;5.57;;;3.72;;
71303;SDS011;59091;47.446;19.148;2023-04-03T05:35:00;20.17;;;5.10;;
71303;SDS011;59091;47.446;19.148;2023-04-03T05:37:25;51.17;;;5.60;;
71303;SDS011;59091;47.446;19.148;2023-04-03T05:39:51;30.15;;;5.13;;
71303;SDS011;59091;47.446;19.148;2023-04-03T05:42:16;25.67;;;5.05;;
71303;SDS011;59091;47.446;19.148;2023-04-03T05:44:42;5.88;;;3.65;;
71303;SDS011;59091;47.446;19.148;2023-04-03T05:47:07;14.80;;;4.20;;
71303;SDS011;59091;47.446;19.148;2023-04-03T05:49:33;9.88;;;4.13;;
71303;SDS011;59091;47.446;19.148;2023-04-03T05:51:58;10.18;;;3.85;;
71303;SDS011;59091;47.446;19.148;2023-04-03T05:54:28;7.28;;;4.25;;
71303;SDS011;59091;47.446;19.148;2023-04-03T05:56:54;5.78;;;4.32;;
71303;SDS011;59091;47.446;19.148;2023-04-03T05:59:20;4.25;;;3.53;;
71303;SDS011;59091;47.446;19.148;2023-04-03T06:01:46;5.63;;;4.10;;
71303;SDS011;59091;47.446;19.148;2023-04-03T06:04:12;7.15;;;4.20;;
71303;SDS011;59091;47.446;19.148;2023-04-03T06:09:21;6.63;;;4.45;;
71303;SDS011;59091;47.446;19.148;2023-04-03T06:11:47;7.32;;;4.30;;
71303;SDS011;59091;47.446;19.148;2023-04-03T06:14:13;8.00;;;4.45;;
71303;SDS011;59091;47.446;19.148;2023-04-03T06:16:38;4.78;;;3.58;;
71303;SDS011;59091;47.446;19.148;2023-04-03T06:19:05;4.65;;;3.80;;
71303;SDS011;59091;47.446;19.148;2023-04-03T06:21:31;4.70;;;3.38;;
71303;SDS011;59091;47.446;19.148;2023-04-03T06:23:57;8.80;;;4.15;;
71303;SDS011;59091;47.446;19.148;2023-04-03T06:26:22;6.53;;;4.13;;
71303;SDS011;59091;47.446;19.148;2023-04-03T06:28:48;7.97;;;3.90;;
71303;SDS011;59091;47.446;19.148;2023-04-03T06:31:13;8.02;;;3.78;;
71303;SDS011;59091;47.446;19.148;2023-04-03T06:33:39;5.80;;;3.78;;
71303;SDS011;59091;47.446;19.148;2023-04-03T06:36:05;5.05;;;4.22;;
71303;SDS011;59091;47.446;19.148;2023-04-03T06:38:31;5.32;;;3.97;;
71303;SDS011;59091;47.446;19.148;2023-04-03T06:40:58;8.07;;;4.53;;
71303;SDS011;59091;47.446;19.148;2023-04-03T06:43:24;6.70;;;4.18;;
71303;SDS011;59091;47.446;19.148;2023-04-03T06:45:49;14.00;;;4.03;;
71303;SDS011;59091;47.446;19.148;2023-04-03T06:48:15;8.45;;;4.20;;
71303;SDS011;59091;47.446;19.148;2023-04-03T06:50:41;4.57;;;3.80;;
71303;SDS011;59091;47.446;19.148;2023-04-03T06:53:06;6.28;;;3.92;;
71303;SDS011;59091;47.446;19.148;2023-04-03T06:55:32;7.50;;;4.10;;
71303;SDS011;59091;47.446;19.148;2023-04-03T06:57:57;6.10;;;4.38;;
71303;SDS011;59091;47.446;19.148;2023-04-03T07:00:23;6.43;;;4.03;;
71303;SDS011;59091;47.446;19.148;2023-04-03T07:02:49;5.80;;;3.85;;
71303;SDS011;59091;47.446;19.148;2023-04-03T07:05:15;5.47;;;4.18;;
71303;SDS011;59091;47.446;19.148;2023-04-03T07:07:41;5.45;;;4.03;;
71303;SDS011;59091;47.446;19.148;2023-04-03T07:10:06;6.22;;;3.90;;
71303;SDS011;59091;47.446;19.148;2023-04-03T07:12:32;5.18;;;3.80;;
71303;SDS011;59091;47.446;19.148;2023-04-03T07:14:58;6.10;;;3.70;;
71303;SDS011;59091;47.446;19.148;2023-04-03T07:17:24;5.35;;;3.80;;
71303;SDS011;59091;47.446;19.148;2023-04-03T07:19:50;5.38;;;3.47;;
71303;SDS011;59091;47.446;19.148;2023-04-03T07:22:16;4.68;;;3.40;;
71303;SDS011;59091;47.446;19.148;2023-04-03T07:24:41;4.90;;;3.35;;
71303;SDS011;59091;47.446;19.148;2023-04-03T07:27:07;6.13;;;3.00;;
71303;SDS011;59091;47.446;19.148;2023-04-03T07:29:33;3.22;;;2.67;;
71303;SDS011;59091;47.446;19.148;2023-04-03T07:31:59;6.30;;;3.40;;
71303;SDS011;59091;47.446;19.148;2023-04-03T07:34:25;4.28;;;3.22;;
71303;SDS011;59091;47.446;19.148;2023-04-03T07:36:51;3.67;;;2.95;;
71303;SDS011;59091;47.446;19.148;2023-04-03T07:39:16;6.32;;;3.20;;
71303;SDS011;59091;47.446;19.148;2023-04-03T07:41:42;3.60;;;2.63;;
71303;SDS011;59091;47.446;19.148;2023-04-03T07:44:07;4.25;;;2.72;;
71303;SDS011;59091;47.446;19.148;2023-04-03T07:46:35;3.70;;;3.00;;
71303;SDS011;59091;47.446;19.148;2023-04-03T07:49:01;4.15;;;2.65;;
71303;SDS011;59091;47.446;19.148;2023-04-03T07:51:26;46.67;;;4.00;;
71303;SDS011;59091;47.446;19.148;2023-04-03T07:53:53;5.63;;;2.47;;
71303;SDS011;59091;47.446;19.148;2023-04-03T07:56:19;2.55;;;2.22;;
71303;SDS011;59091;47.446;19.148;2023-04-03T07:58:45;5.10;;;2.70;;
71303;SDS011;59091;47.446;19.148;2023-04-03T08:01:11;2.72;;;2.10;;
71303;SDS011;59091;47.446;19.148;2023-04-03T08:03:37;4.10;;;2.30;;
71303;SDS011;59091;47.446;19.148;2023-04-03T08:06:04;3.42;;;2.42;;
71303;SDS011;59091;47.446;19.148;2023-04-03T08:08:39;3.85;;;2.22;;
71303;SDS011;59091;47.446;19.148;2023-04-03T08:11:09;4.32;;;2.40;;
71303;SDS011;59091;47.446;19.148;2023-04-03T08:13:35;2.67;;;2.47;;
71303;SDS011;59091;47.446;19.148;2023-04-03T08:16:10;2.88;;;2.55;;
71303;SDS011;59091;47.446;19.148;2023-04-03T08:18:37;11.73;;;2.78;;
71303;SDS011;59091;47.446;19.148;2023-04-03T08:21:07;2.95;;;2.30;;
71303;SDS011;59091;47.446;19.148;2023-04-03T08:23:36;8.35;;;2.53;;
71303;SDS011;59091;47.446;19.148;2023-04-03T08:26:13;3.15;;;2.30;;
71303;SDS011;59091;47.446;19.148;2023-04-03T08:28:40;4.43;;;2.60;;
71303;SDS011;59091;47.446;19.148;2023-04-03T08:31:08;7.53;;;2.20;;
71303;SDS011;59091;47.446;19.148;2023-04-03T08:33:36;4.43;;;2.40;;
71303;SDS011;59091;47.446;19.148;2023-04-03T08:36:03;2.20;;;2.00;;
71303;SDS011;59091;47.446;19.148;2023-04-03T08:38:33;2.50;;;2.20;;
71303;SDS011;59091;47.446;19.148;2023-04-03T08:41:15;3.53;;;2.33;;
71303;SDS011;59091;47.446;19.148;2023-04-03T08:49:20;2.75;;;2.25;;
71303;SDS011;59091;47.446;19.148;2023-04-03T08:51:49;3.30;;;2.30;;
71303;SDS011;59091;47.446;19.148;2023-04-03T08:54:24;2.65;;;2.20;;
71303;SDS011;59091;47.446;19.148;2023-04-03T08:56:55;2.65;;;2.20;;
71303;SDS011;59091;47.446;19.148;2023-04-03T08:59:26;2.50;;;2.30;;
71303;SDS011;59091;47.446;19.148;2023-04-03T09:01:57;3.20;;;2.53;;
71303;SDS011;59091;47.446;19.148;2023-04-03T09:04:27;3.40;;;2.13;;
71303;SDS011;59091;47.446;19.148;2023-04-03T09:06:58;5.00;;;2.80;;
71303;SDS011;59091;47.446;19.148;2023-04-03T09:09:36;3.00;;;2.30;;
71303;SDS011;59091;47.446;19.148;2023-04-03T09:12:27;2.72;;;2.53;;
71303;SDS011;59091;47.446;19.148;2023-04-03T09:15:02;2.70;;;2.45;;
71303;SDS011;59091;47.446;19.148;2023-04-03T09:22:52;5.93;;;2.55;;
71303;SDS011;59091;47.446;19.148;2023-04-03T09:25:25;2.60;;;2.38;;
71303;SDS011;59091;47.446;19.148;2023-04-03T09:27:54;4.30;;;2.20;;
71303;SDS011;59091;47.446;19.148;2023-04-03T09:30:21;2.67;;;2.35;;
71303;SDS011;59091;47.446;19.148;2023-04-03T09:32:53;3.50;;;2.40;;
71303;SDS011;59091;47.446;19.148;2023-04-03T09:37:46;2.80;;;2.53;;
71303;SDS011;59091;47.446;19.148;2023-04-03T09:42:53;3.50;;;2.65;;
71303;SDS011;59091;47.446;19.148;2023-04-03T09:45:25;2.35;;;2.15;;
71303;SDS011;59091;47.446;19.148;2023-04-03T09:53:32;2.85;;;2.47;;
71303;SDS011;59091;47.446;19.148;2023-04-03T09:56:01;3.25;;;2.00;;
71303;SDS011;59091;47.446;19.148;2023-04-03T10:03:54;2.40;;;2.20;;
71303;SDS011;59091;47.446;19.148;2023-04-03T10:06:51;2.47;;;2.00;;
71303;SDS011;59091;47.446;19.148;2023-04-03T10:09:31;2.90;;;2.45;;
71303;SDS011;59091;47.446;19.148;2023-04-03T10:12:02;7.97;;;2.15;;
71303;SDS011;59091;47.446;19.148;2023-04-03T10:14:35;2.83;;;2.15;;
71303;SDS011;59091;47.446;19.148;2023-04-03T10:17:05;2.38;;;2.17;;
71303;SDS011;59091;47.446;19.148;2023-04-03T10:19:47;2.55;;;2.10;;
71303;SDS011;59091;47.446;19.148;2023-04-03T10:25:34;2.22;;;2.03;;
71303;SDS011;59091;47.446;19.148;2023-04-03T10:39:16;2.05;;;1.85;;
71303;SDS011;59091;47.446;19.148;2023-04-03T10:52:43;1.52;;;1.42;;
71303;SDS011;59091;47.446;19.148;2023-04-03T10:55:48;1.50;;;1.40;;
71303;SDS011;59091;47.446;19.148;2023-04-03T11:01:42;2.45;;;1.40;;
71303;SDS011;59091;47.446;19.148;2023-04-03T11:04:11;1.50;;;1.38;;
71303;SDS011;59091;47.446;19.148;2023-04-03T11:06:41;1.30;;;1.20;;
71303;SDS011;59091;47.446;19.148;2023-04-03T11:12:13;3.42;;;1.40;;
71303;SDS011;59091;47.446;19.148;2023-04-03T11:14:42;5.05;;;1.48;;
71303;SDS011;59091;47.446;19.148;2023-04-03T11:19:50;1.73;;;1.40;;
71303;SDS011;59091;47.446;19.148;2023-04-03T11:27:45;1.52;;;1.27;;
71303;SDS011;59091;47.446;19.148;2023-04-03T11:30:27;1.23;;;1.17;;
71303;SDS011;59091;47.446;19.148;2023-04-03T11:35:29;1.70;;;1.60;;
71303;SDS011;59091;47.446;19.148;2023-04-03T11:37:56;1.52;;;1.42;;
71303;SDS011;59091;47.446;19.148;2023-04-03T11:40:28;2.17;;;1.70;;
71303;SDS011;59091;47.446;19.148;2023-04-03T11:43:07;1.73;;;1.63;;
71303;SDS011;59091;47.446;19.148;2023-04-03T11:45:50;3.00;;;1.40;;
71303;SDS011;59091;47.446;19.148;2023-04-03T11:50:56;1.40;;;1.30;;
71303;SDS011;59091;47.446;19.148;2023-04-03T11:56:26;1.55;;;1.15;;
71303;SDS011;59091;47.446;19.148;2023-04-03T12:04:11;1.33;;;1.23;;
71303;SDS011;59091;47.446;19.148;2023-04-03T12:09:28;1.10;;;0.98;;
71303;SDS011;59091;47.446;19.148;2023-04-03T12:11:53;1.38;;;1.20;;
71303;SDS011;59091;47.446;19.148;2023-04-03T12:14:24;1.40;;;1.30;;
71303;SDS011;59091;47.446;19.148;2023-04-03T12:16:50;1.40;;;1.30;;
71303;SDS011;59091;47.446;19.148;2023-04-03T12:19:34;4.05;;;1.50;;
71303;SDS011;59091;47.446;19.148;2023-04-03T12:22:13;16.00;;;2.20;;
71303;SDS011;59091;47.446;19.148;2023-04-03T12:24:41;8.07;;;2.05;;
71303;SDS011;59091;47.446;19.148;2023-04-03T12:35:35;1.98;;;1.67;;
71303;SDS011;59091;47.446;19.148;2023-04-03T12:40:31;1.50;;;1.40;;
71303;SDS011;59091;47.446;19.148;2023-04-03T12:43:05;2.58;;;1.42;;
71303;SDS011;59091;47.446;19.148;2023-04-03T12:45:43;2.28;;;1.58;;
71303;SDS011;59091;47.446;19.148;2023-04-03T12:48:14;2.13;;;1.80;;
71303;SDS011;59091;47.446;19.148;2023-04-03T12:50:41;1.67;;;1.48;;
71303;SDS011;59091;47.446;19.148;2023-04-03T12:53:19;3.83;;;1.45;;
71303;SDS011;59091;47.446;19.148;2023-04-03T12:55:53;4.10;;;1.60;;
71303;SDS011;59091;47.446;19.148;2023-04-03T13:00:59;4.25;;;1.83;;
71303;SDS011;59091;47.446;19.148;2023-04-03T13:03:29;1.67;;;1.58;;
71303;SDS011;59091;47.446;19.148;2023-04-03T13:06:00;1.77;;;1.67;;
71303;SDS011;59091;47.446;19.148;2023-04-03T13:08:28;1.90;;;1.42;;
71303;SDS011;59091;47.446;19.148;2023-04-03T13:13:25;2.13;;;1.20;;
71303;SDS011;59091;47.446;19.148;2023-04-03T13:15:51;4.82;;;1.40;;
71303;SDS011;59091;47.446;19.148;2023-04-03T13:18:26;1.40;;;1.30;;
71303;SDS011;59091;47.446;19.148;2023-04-03T13:21:01;1.40;;;1.30;;
71303;SDS011;59091;47.446;19.148;2023-04-03T13:23:31;2.42;;;1.50;;
71303;SDS011;59091;47.446;19.148;2023-04-03T13:26:00;1.50;;;1.40;;
71303;SDS011;59091;47.446;19.148;2023-04-03T13:28:28;4.57;;;1.40;;
71303;SDS011;59091;47.446;19.148;2023-04-03T13:33:50;1.40;;;1.30;;
71303;SDS011;59091;47.446;19.148;2023-04-03T13:36:23;1.40;;;1.30;;
71303;SDS011;59091;47.446;19.148;2023-04-03T13:41:33;1.30;;;1.20;;
71303;SDS011;59091;47.446;19.148;2023-04-03T13:47:14;4.63;;;1.25;;
71303;SDS011;59091;47.446;19.148;2023-04-03T13:49:42;2.65;;;1.60;;
71303;SDS011;59091;47.446;19.148;2023-04-03T13:55:01;1.67;;;1.30;;
71303;SDS011;59091;47.446;19.148;2023-04-03T13:57:58;1.88;;;1.30;;
71303;SDS011;59091;47.446;19.148;2023-04-03T14:03:00;1.40;;;1.30;;
71303;SDS011;59091;47.446;19.148;2023-04-03T14:05:26;1.70;;;1.60;;
71303;SDS011;59091;47.446;19.148;2023-04-03T14:07:52;1.73;;;1.58;;
71303;SDS011;59091;47.446;19.148;2023-04-03T14:10:19;1.67;;;1.58;;
71303;SDS011;59091;47.446;19.148;2023-04-03T14:12:45;1.70;;;1.60;;
71303;SDS011;59091;47.446;19.148;2023-04-03T14:15:18;1.77;;;1.60;;
71303;SDS011;59091;47.446;19.148;2023-04-03T14:17:48;1.88;;;1.70;;
71303;SDS011;59091;47.446;19.148;2023-04-03T14:20:16;1.38;;;1.27;;
71303;SDS011;59091;47.446;19.148;2023-04-03T14:22:45;1.70;;;1.60;;
71303;SDS011;59091;47.446;19.148;2023-04-03T14:25:11;1.70;;;1.60;;
71303;SDS011;59091;47.446;19.148;2023-04-03T14:27:38;1.73;;;1.50;;
71303;SDS011;59091;47.446;19.148;2023-04-03T14:30:06;1.65;;;1.50;;
71303;SDS011;59091;47.446;19.148;2023-04-03T14:32:34;1.52;;;1.42;;
71303;SDS011;59091;47.446;19.148;2023-04-03T14:35:00;1.50;;;1.40;;
71303;SDS011;59091;47.446;19.148;2023-04-03T14:37:28;1.23;;;1.20;;
71303;SDS011;59091;47.446;19.148;2023-04-03T14:39:55;1.40;;;1.30;;
71303;SDS011;59091;47.446;19.148;2023-04-03T14:42:23;1.30;;;1.20;;
71303;SDS011;59091;47.446;19.148;2023-04-03T14:44:53;2.85;;;1.08;;
71303;SDS011;59091;47.446;19.148;2023-04-03T14:47:20;1.30;;;1.20;;
71303;SDS011;59091;47.446;19.148;2023-04-03T14:49:48;1.33;;;1.23;;
71303;SDS011;59091;47.446;19.148;2023-04-03T14:52:24;1.35;;;1.25;;
71303;SDS011;59091;47.446;19.148;2023-04-03T14:54:52;1.10;;;1.10;;
71303;SDS011;59091;47.446;19.148;2023-04-03T14:57:18;1.55;;;1.42;;
71303;SDS011;59091;47.446;19.148;2023-04-03T14:59:46;1.40;;;1.30;;
71303;SDS011;59091;47.446;19.148;2023-04-03T15:02:33;1.52;;;1.20;;
71303;SDS011;59091;47.446;19.148;2023-04-03T15:04:59;1.40;;;1.30;;
71303;SDS011;59091;47.446;19.148;2023-04-03T15:07:27;1.50;;;1.40;;
71303;SDS011;59091;47.446;19.148;2023-04-03T15:09:54;2.58;;;1.73;;
71303;SDS011;59091;47.446;19.148;2023-04-03T15:12:22;1.63;;;1.52;;
71303;SDS011;59091;47.446;19.148;2023-04-03T15:14:50;1.75;;;1.50;;
71303;SDS011;59091;47.446;19.148;2023-04-03T15:17:19;1.40;;;1.30;;
71303;SDS011;59091;47.446;19.148;2023-04-03T15:19:47;2.33;;;1.70;;
71303;SDS011;59091;47.446;19.148;2023-04-03T15:22:14;2.45;;;1.90;;
71303;SDS011;59091;47.446;19.148;2023-04-03T15:24:41;2.50;;;1.70;;
71303;SDS011;59091;47.446;19.148;2023-04-03T15:27:07;3.15;;;2.20;;
71303;SDS011;59091;47.446;19.148;2023-04-03T15:29:32;2.75;;;2.55;;
71303;SDS011;59091;47.446;19.148;2023-04-03T15:31:58;4.40;;;2.65;;
71303;SDS011;59091;47.446;19.148;2023-04-03T15:34:23;2.03;;;1.73;;
71303;SDS011;59091;47.446;19.148;2023-04-03T15:36:49;2.70;;;1.63;;
71303;SDS011;59091;47.446;19.148;2023-04-03T15:39:17;3.28;;;1.40;;
71303;SDS011;59091;47.446;19.148;2023-04-03T15:41:42;2.40;;;1.63;;
71303;SDS011;59091;47.446;19.148;2023-04-03T15:44:08;2.03;;;1.50;;
71303;SDS011;59091;47.446;19.148;2023-04-03T15:46:34;1.27;;;1.17;;
71303;SDS011;59091;47.446;19.148;2023-04-03T15:48:59;2.92;;;2.08;;
71303;SDS011;59091;47.446;19.148;2023-04-03T15:51:26;1.70;;;1.60;;
71303;SDS011;59091;47.446;19.148;2023-04-03T15:53:51;1.52;;;1.42;;
71303;SDS011;59091;47.446;19.148;2023-04-03T15:56:16;1.80;;;1.30;;
71303;SDS011;59091;47.446;19.148;2023-04-03T15:58:42;1.30;;;1.20;;
71303;SDS011;59091;47.446;19.148;2023-04-03T16:01:09;2.55;;;1.35;;
71303;SDS011;59091;47.446;19.148;2023-04-03T16:03:35;3.25;;;1.70;;
71303;SDS011;59091;47.446;19.148;2023-04-03T16:06:03;5.18;;;2.60;;
71303;SDS011;59091;47.446;19.148;2023-04-03T16:08:29;4.32;;;2.15;;
71303;SDS011;59091;47.446;19.148;2023-04-03T16:10:55;2.17;;;1.35;;
71303;SDS011;59091;47.446;19.148;2023-04-03T16:13:20;2.08;;;1.50;;
71303;SDS011;59091;47.446;19.148;2023-04-03T16:15:45;3.95;;;2.88;;
71303;SDS011;59091;47.446;19.148;2023-04-03T16:18:11;2.03;;;1.65;;
71303;SDS011;59091;47.446;19.148;2023-04-03T16:20:38;4.15;;;1.50;;
71303;SDS011;59091;47.446;19.148;2023-04-03T16:23:04;1.67;;;1.52;;
71303;SDS011;59091;47.446;19.148;2023-04-03T16:25:30;3.92;;;1.70;;
71303;SDS011;59091;47.446;19.148;2023-04-03T16:27:56;3.30;;;1.60;;
71303;SDS011;59091;47.446;19.148;2023-04-03T16:30:21;1.73;;;1.63;;
71303;SDS011;59091;47.446;19.148;2023-04-03T16:32:48;1.98;;;1.70;;
71303;SDS011;59091;47.446;19.148;2023-04-03T16:35:13;3.85;;;2.35;;
71303;SDS011;59091;47.446;19.148;2023-04-03T16:37:39;4.68;;;2.47;;
71303;SDS011;59091;47.446;19.148;2023-04-03T16:40:05;5.95;;;2.83;;
71303;SDS011;59091;47.446;19.148;2023-04-03T16:42:31;3.72;;;2.55;;